createdAt,value
2019-04-22T00:01:32.388Z,6.00
2019-04-22T00:04:06.986Z,6.40
2019-04-22T00:06:51.821Z,5.43
2019-04-22T00:09:25.195Z,5.67
2019-04-22T00:12:01.817Z,5.40
2019-04-22T00:14:26.724Z,4.80
2019-04-22T00:16:58.528Z,4.70
2019-04-22T00:19:28.948Z,5.17
2019-04-22T00:22:03.137Z,4.30
2019-04-22T00:24:24.297Z,4.90
2019-04-22T00:26:59.998Z,5.77
2019-04-22T00:29:49.825Z,5.53
2019-04-22T00:32:05.246Z,4.87
2019-04-22T00:34:48.840Z,5.70
2019-04-22T00:37:17.219Z,4.70
2019-04-22T00:39:46.455Z,6.00
2019-04-22T00:42:21.402Z,5.40
2019-04-22T00:44:51.763Z,4.80
2019-04-22T00:47:23.447Z,5.30
2019-04-22T00:52:15.448Z,4.73
2019-04-22T00:54:55.702Z,5.57
2019-04-22T00:57:21.444Z,5.13
2019-04-22T00:59:54.826Z,4.93
2019-04-22T01:02:23.646Z,4.73
2019-04-22T01:04:57.550Z,5.10
2019-04-22T01:07:18.857Z,6.60
2019-04-22T01:09:52.075Z,5.20
2019-04-22T01:12:28.485Z,4.67
2019-04-22T01:14:57.227Z,4.87
2019-04-22T01:17:24.289Z,4.93
2019-04-22T01:19:56.310Z,5.47
2019-04-22T01:22:22.385Z,4.83
2019-04-22T01:24:50.312Z,5.20
2019-04-22T01:27:16.215Z,5.70
2019-04-22T01:29:46.903Z,4.97
2019-04-22T01:32:05.889Z,5.00
2019-04-22T01:34:46.075Z,5.07
2019-04-22T01:37:20.322Z,5.37
2019-04-22T01:39:58.334Z,6.00
2019-04-22T01:42:36.967Z,4.90
2019-04-22T01:44:59.601Z,5.90
2019-04-22T01:47:32.783Z,5.40
2019-04-22T01:49:59.867Z,5.30
2019-04-22T01:52:29.699Z,6.00
2019-04-22T01:55:06.659Z,5.50
2019-04-22T01:57:28.766Z,5.80
2019-04-22T01:59:59.059Z,4.63
2019-04-22T02:02:36.482Z,4.90
2019-04-22T02:05:05.712Z,5.60
2019-04-22T02:07:34.029Z,4.60
2019-04-22T02:10:04.025Z,5.00
2019-04-22T02:12:33.667Z,4.57
2019-04-22T02:15:07.898Z,5.10
2019-04-22T02:17:36.926Z,5.33
2019-04-22T02:20:07.213Z,5.60
2019-04-22T02:22:52.251Z,6.70
2019-04-22T02:25:09.348Z,5.10
2019-04-22T02:27:39.016Z,5.80
2019-04-22T02:30:05.418Z,4.57
2019-04-22T02:32:49.391Z,5.93
2019-04-22T02:35:11.173Z,4.90
2019-04-22T02:37:54.524Z,6.40
2019-04-22T02:40:09.578Z,4.93
2019-04-22T02:42:34.933Z,6.17
2019-04-22T02:45:07.177Z,6.77
2019-04-22T02:47:59.325Z,6.53
2019-04-22T02:53:00.881Z,4.70
2019-04-22T02:57:39.723Z,5.57
2019-04-22T03:00:29.422Z,5.43
2019-04-22T03:02:52.725Z,5.20
2019-04-22T03:05:21.618Z,5.50
2019-04-22T03:07:55.834Z,5.20
2019-04-22T03:10:38.488Z,5.13
2019-04-22T03:12:41.721Z,4.63
2019-04-22T03:15:34.989Z,4.67
2019-04-22T03:17:51.745Z,5.10
2019-04-22T03:20:11.139Z,4.73
2019-04-22T03:22:59.592Z,4.30
2019-04-22T03:27:38.784Z,4.20
2019-04-22T03:40:30.383Z,5.40
2019-04-22T03:42:55.954Z,4.57
2019-04-22T03:48:04.720Z,4.50
2019-04-22T03:50:25.931Z,4.93
2019-04-22T03:55:22.998Z,4.60
2019-04-22T04:00:41.650Z,4.90
2019-04-22T04:05:33.164Z,5.00
2019-04-22T04:07:57.716Z,5.23
2019-04-22T04:13:01.857Z,4.80
2019-04-22T04:15:24.841Z,6.10
2019-04-22T04:17:53.858Z,5.40
2019-04-22T04:22:58.965Z,5.17
2019-04-22T04:30:29.477Z,5.80
2019-04-22T04:35:30.494Z,4.80
2019-04-22T04:40:28.835Z,4.87
2019-04-22T04:42:54.142Z,5.60
2019-04-22T04:47:54.526Z,4.50
2019-04-22T04:50:27.335Z,5.60
2019-04-22T04:53:06.341Z,5.77
2019-04-22T04:55:34.881Z,4.67
2019-04-22T05:05:29.317Z,3.83
2019-04-22T05:07:55.356Z,4.83
2019-04-22T05:15:47.152Z,4.50
2019-04-22T05:17:57.795Z,6.13
2019-04-22T05:20:34.177Z,5.77
2019-04-22T05:22:51.077Z,5.73
2019-04-22T05:25:22.238Z,5.87
2019-04-22T05:27:50.889Z,4.77
2019-04-22T05:30:30.663Z,5.53
2019-04-22T05:32:58.010Z,5.30
2019-04-22T05:35:28.151Z,5.10
2019-04-22T05:37:57.737Z,5.30
2019-04-22T05:40:24.780Z,5.93
2019-04-22T05:42:56.572Z,6.53
2019-04-22T05:47:59.261Z,6.30
2019-04-22T05:50:24.735Z,6.00
2019-04-22T05:52:57.076Z,6.40
2019-04-22T05:55:33.211Z,5.00
2019-04-22T05:57:59.705Z,6.13
2019-04-22T06:03:07.197Z,5.80
2019-04-22T06:05:33.140Z,5.63
2019-04-22T06:08:02.136Z,5.23
2019-04-22T06:10:39.241Z,5.53
2019-04-22T06:13:00.897Z,7.10
2019-04-22T06:15:36.358Z,6.07
2019-04-22T06:18:16.133Z,6.53
2019-04-22T06:20:49.838Z,5.37
2019-04-22T06:23:19.283Z,6.80
2019-04-22T06:28:22.194Z,5.20
2019-04-22T06:30:54.669Z,6.97
2019-04-22T06:35:54.629Z,6.00
2019-04-22T06:43:20.121Z,5.67
2019-04-22T06:45:43.851Z,6.27
2019-04-22T06:48:23.631Z,6.17
2019-04-22T06:50:48.891Z,6.17
2019-04-22T06:53:16.832Z,6.43
2019-04-22T06:55:51.659Z,6.80
2019-04-22T06:58:34.946Z,5.97
2019-04-22T07:00:46.228Z,5.30
2019-04-22T07:03:39.889Z,5.20
2019-04-22T07:05:51.510Z,5.73
2019-04-22T07:10:50.814Z,4.40
2019-04-22T07:13:23.563Z,3.80
2019-04-22T07:16:08.902Z,5.40
2019-04-22T07:18:25.066Z,4.20
2019-04-22T07:20:57.825Z,4.40
2019-04-22T07:25:52.107Z,3.93
2019-04-22T07:28:20.221Z,4.63
2019-04-22T07:30:54.617Z,5.27
2019-04-22T07:36:12.607Z,5.40
2019-04-22T07:45:54.438Z,4.20
2019-04-22T07:48:35.762Z,4.33
2019-04-22T07:53:23.047Z,4.83
2019-04-22T07:56:00.187Z,4.67
2019-04-22T08:01:04.125Z,5.37
2019-04-22T08:03:54.150Z,5.00
2019-04-22T08:06:06.552Z,4.60
2019-04-22T08:11:30.923Z,5.43
2019-04-22T08:13:32.648Z,4.10
2019-04-22T08:23:37.946Z,5.03
2019-04-22T08:26:01.121Z,4.10
2019-04-22T08:28:40.758Z,4.30
2019-04-22T08:33:35.032Z,4.27
2019-04-22T08:36:10.853Z,4.40
2019-04-22T08:38:39.373Z,3.80
2019-04-22T08:41:23.050Z,3.37
2019-04-22T08:43:52.352Z,3.80
2019-04-22T08:46:25.312Z,3.87
2019-04-22T08:48:51.676Z,3.97
2019-04-22T08:51:22.267Z,4.30
2019-04-22T08:53:55.990Z,4.03
2019-04-22T08:56:29.600Z,3.60
2019-04-22T08:58:50.705Z,3.33
2019-04-22T09:03:52.690Z,4.27
2019-04-22T09:06:29.976Z,4.40
2019-04-22T09:08:55.320Z,3.57
2019-04-22T09:11:20.221Z,3.30
2019-04-22T09:16:27.975Z,3.20
2019-04-22T09:21:27.653Z,3.77
2019-04-22T09:23:55.667Z,4.50
2019-04-22T09:26:27.117Z,3.60
2019-04-22T09:31:19.046Z,3.53
2019-04-22T09:33:50.172Z,3.40
2019-04-22T09:38:46.818Z,3.30
2019-04-22T09:41:27.199Z,4.30
2019-04-22T09:46:32.871Z,4.07
2019-04-22T09:49:01.683Z,3.30
2019-04-22T09:51:29.127Z,3.47
2019-04-22T09:54:04.161Z,3.33
2019-04-22T09:56:23.804Z,3.47
2019-04-22T09:58:58.987Z,3.70
2019-04-22T10:04:03.720Z,3.43
2019-04-22T10:09:13.050Z,3.37
2019-04-22T10:16:35.479Z,3.40
2019-04-22T10:19:01.051Z,4.13
2019-04-22T10:21:37.179Z,4.23
2019-04-22T10:23:59.857Z,4.00
2019-04-22T10:26:34.900Z,3.10
2019-04-22T10:29:00.872Z,3.30
2019-04-22T10:31:44.787Z,3.73
2019-04-22T10:33:49.517Z,4.13
2019-04-22T10:36:05.897Z,3.60
2019-04-22T10:38:34.727Z,3.83
2019-04-22T10:41:04.769Z,3.80
2019-04-22T10:43:34.840Z,3.60
2019-04-22T10:46:04.168Z,4.40
2019-04-22T10:48:34.372Z,3.93
2019-04-22T10:51:04.459Z,4.00
2019-04-22T10:53:33.493Z,3.77
2019-04-22T10:56:03.235Z,3.93
2019-04-22T10:58:32.967Z,3.77
2019-04-22T11:01:01.623Z,3.47
2019-04-22T11:03:31.123Z,3.70
2019-04-22T11:06:01.248Z,3.90
2019-04-22T11:08:38.595Z,3.20
2019-04-22T11:11:16.239Z,3.67
2019-04-22T11:13:31.766Z,3.10
2019-04-22T11:16:00.623Z,3.50
2019-04-22T11:18:29.614Z,2.83
2019-04-22T11:20:59.746Z,3.30
2019-04-22T11:23:28.842Z,3.27
2019-04-22T11:25:59.562Z,3.43
2019-04-22T11:28:29.541Z,3.43
2019-04-22T11:30:58.697Z,3.67
2019-04-22T11:33:27.523Z,3.67
2019-04-22T11:35:56.012Z,3.57
2019-04-22T11:38:24.731Z,3.33
2019-04-22T11:40:55.484Z,3.63
2019-04-22T11:43:24.192Z,3.10
2019-04-22T11:45:53.368Z,3.40
2019-04-22T11:48:23.527Z,2.67
2019-04-22T11:50:52.063Z,3.07
2019-04-22T11:53:20.709Z,3.40
2019-04-22T11:55:50.735Z,3.20
2019-04-22T11:58:19.453Z,2.60
2019-04-22T12:00:49.478Z,2.90
2019-04-22T12:03:20.869Z,2.63
2019-04-22T12:05:49.954Z,2.67
2019-04-22T12:08:18.618Z,2.40
2019-04-22T12:10:54.232Z,2.67
2019-04-22T12:13:17.855Z,2.00
2019-04-22T12:15:46.882Z,2.40
2019-04-22T12:18:17.209Z,2.60
2019-04-22T12:20:47.182Z,2.50
2019-04-22T12:23:17.008Z,2.50
2019-04-22T12:25:52.501Z,2.33
2019-04-22T12:28:17.200Z,2.37
2019-04-22T12:30:45.883Z,2.80
2019-04-22T12:33:14.954Z,2.40
2019-04-22T12:35:44.402Z,2.83
2019-04-22T12:38:15.221Z,2.70
2019-04-22T12:40:51.867Z,2.57
2019-04-22T12:43:16.129Z,2.67
2019-04-22T12:45:44.743Z,2.67
2019-04-22T12:48:14.849Z,3.17
2019-04-22T12:50:45.918Z,2.70
2019-04-22T12:53:17.767Z,2.40
2019-04-22T12:55:44.290Z,2.90
2019-04-22T12:58:13.883Z,1.97
2019-04-22T13:00:42.829Z,2.40
2019-04-22T13:03:11.469Z,1.93
2019-04-22T13:05:40.984Z,1.97
2019-04-22T13:08:09.745Z,2.20
2019-04-22T13:10:45.605Z,2.83
2019-04-22T13:13:09.178Z,2.10
2019-04-22T13:15:39.115Z,1.90
2019-04-22T13:18:17.544Z,2.70
2019-04-22T13:20:38.683Z,2.60
2019-04-22T13:23:07.765Z,3.10
2019-04-22T13:25:36.731Z,2.20
2019-04-22T13:28:05.294Z,3.00
2019-04-22T13:30:34.674Z,2.00
2019-04-22T13:33:03.302Z,2.37
2019-04-22T13:35:31.980Z,2.13
2019-04-22T13:38:01.496Z,2.73
2019-04-22T13:40:30.791Z,1.90
2019-04-22T13:43:00.750Z,2.27
2019-04-22T13:45:29.824Z,2.20
2019-04-22T13:48:18.358Z,2.67
2019-04-22T13:51:00.962Z,2.47
2019-04-22T13:58:14.609Z,1.90
2019-04-22T14:00:32.038Z,2.00
2019-04-22T14:03:12.749Z,2.17
2019-04-22T14:05:42.984Z,1.93
2019-04-22T14:08:12.666Z,2.53
2019-04-22T14:10:42.808Z,1.77
2019-04-22T14:13:12.034Z,2.00
2019-04-22T14:15:42.256Z,2.13
2019-04-22T14:18:12.711Z,2.10
2019-04-22T14:20:42.819Z,1.90
2019-04-22T14:23:12.271Z,1.77
2019-04-22T14:25:43.024Z,2.20
2019-04-22T14:28:16.949Z,2.30
2019-04-22T14:30:42.509Z,2.17
2019-04-22T14:33:12.150Z,2.00
2019-04-22T14:35:41.607Z,1.60
2019-04-22T14:38:10.309Z,2.00
2019-04-22T14:40:40.960Z,1.50
2019-04-22T14:43:32.761Z,1.70
2019-04-22T14:46:12.249Z,1.93
2019-04-22T14:48:35.674Z,1.77
2019-04-22T14:51:00.893Z,1.80
2019-04-22T14:53:32.153Z,1.77
2019-04-22T14:55:42.250Z,1.87
2019-04-22T14:58:11.068Z,2.30
2019-04-22T15:00:40.015Z,1.90
2019-04-22T15:03:09.933Z,1.93
2019-04-22T15:05:40.026Z,1.30
2019-04-22T15:08:09.040Z,1.60
2019-04-22T15:10:38.154Z,1.70
2019-04-22T15:13:07.363Z,1.90
2019-04-22T15:15:43.601Z,1.67
2019-04-22T15:18:17.543Z,1.90
2019-04-22T15:20:54.276Z,2.00
2019-04-22T15:23:24.650Z,2.13
2019-04-22T15:25:54.657Z,1.40
2019-04-22T15:28:23.763Z,1.97
2019-04-22T15:30:53.251Z,1.40
2019-04-22T15:33:21.794Z,1.63
2019-04-22T15:35:51.530Z,4.40
2019-04-22T15:38:22.798Z,5.37
2019-04-22T15:40:50.463Z,3.90
2019-04-22T15:43:20.408Z,15.17
2019-04-22T15:45:50.786Z,12.67
2019-04-22T15:48:21.073Z,3.70
2019-04-22T15:50:50.751Z,3.57
2019-04-22T15:53:20.067Z,8.60
2019-04-22T15:55:48.742Z,4.43
2019-04-22T15:58:17.590Z,2.30
2019-04-22T16:00:57.635Z,2.40
2019-04-22T16:03:16.532Z,1.93
2019-04-22T16:05:46.100Z,1.80
2019-04-22T16:08:15.045Z,2.13
2019-04-22T16:10:43.965Z,2.30
2019-04-22T16:13:19.188Z,3.43
2019-04-22T16:15:42.942Z,2.27
2019-04-22T16:18:14.628Z,1.87
2019-04-22T16:20:41.743Z,1.63
2019-04-22T16:23:13.117Z,1.87
2019-04-22T16:25:53.642Z,1.90
2019-04-22T16:28:22.165Z,1.53
2019-04-22T16:30:51.133Z,2.20
2019-04-22T16:33:21.490Z,2.00
2019-04-22T16:35:50.857Z,1.40
2019-04-22T16:38:19.461Z,1.53
2019-04-22T16:40:48.644Z,1.47
2019-04-22T16:43:17.358Z,1.30
2019-04-22T16:45:45.879Z,1.13
2019-04-22T16:48:15.709Z,1.53
2019-04-22T16:50:46.602Z,2.80
2019-04-22T16:53:16.750Z,2.87
2019-04-22T16:55:46.643Z,1.47
2019-04-22T16:58:16.624Z,2.03
2019-04-22T17:00:46.944Z,5.10
2019-04-22T17:03:30.747Z,1.83
2019-04-22T17:06:19.451Z,2.10
2019-04-22T17:08:48.696Z,1.10
2019-04-22T17:11:17.929Z,1.70
2019-04-22T17:13:48.000Z,1.67
2019-04-22T17:16:18.049Z,2.00
2019-04-22T17:18:47.213Z,1.60
2019-04-22T17:21:17.397Z,1.63
2019-04-22T17:23:47.546Z,1.37
2019-04-22T17:26:16.691Z,2.10
2019-04-22T17:28:45.869Z,1.30
2019-04-22T17:31:14.506Z,1.30
2019-04-22T17:33:44.564Z,1.60
2019-04-22T17:36:14.050Z,1.73
2019-04-22T17:38:53.170Z,1.30
2019-04-22T17:41:24.369Z,1.57
2019-04-22T17:44:24.969Z,1.10
2019-04-22T17:46:33.652Z,1.90
2019-04-22T17:49:23.783Z,1.90
2019-04-22T17:52:15.645Z,1.70
2019-04-22T17:54:40.734Z,1.63
2019-04-22T17:57:05.191Z,1.67
2019-04-22T17:59:38.180Z,1.87
2019-04-22T18:02:02.119Z,1.43
2019-04-22T18:04:18.167Z,1.50
2019-04-22T18:07:12.959Z,1.90
2019-04-22T18:09:53.139Z,2.27
2019-04-22T18:12:11.849Z,2.30
2019-04-22T18:17:12.859Z,1.80
2019-04-22T18:19:35.169Z,1.50
2019-04-22T18:22:02.497Z,1.73
2019-04-22T18:24:28.059Z,1.80
2019-04-22T18:27:20.210Z,2.10
2019-04-22T18:29:41.773Z,1.63
2019-04-22T18:32:00.755Z,1.80
2019-04-22T18:34:34.271Z,1.47
2019-04-22T18:37:06.958Z,1.77
2019-04-22T18:39:42.416Z,2.17
2019-04-22T18:42:05.791Z,2.37
2019-04-22T18:44:39.842Z,1.60
2019-04-22T18:47:10.722Z,2.27
2019-04-22T18:49:37.611Z,1.73
2019-04-22T18:52:29.504Z,2.10
2019-04-22T18:55:14.627Z,2.50
2019-04-22T18:57:59.117Z,1.20
2019-04-22T19:00:18.524Z,1.30
2019-04-22T19:02:54.207Z,1.20
2019-04-22T19:05:34.717Z,1.90
2019-04-22T19:08:18.384Z,1.23
2019-04-22T19:10:51.839Z,2.00
2019-04-22T19:13:49.039Z,1.50
2019-04-22T19:15:48.861Z,1.53
2019-04-22T19:18:24.432Z,2.33
2019-04-22T19:20:52.058Z,1.90
2019-04-22T19:23:17.955Z,1.60
2019-04-22T19:25:43.788Z,1.67
2019-04-22T19:28:28.071Z,1.60
2019-04-22T19:30:48.204Z,2.20
2019-04-22T19:33:19.010Z,1.27
2019-04-22T19:35:44.326Z,1.30
2019-04-22T19:38:10.902Z,1.70
2019-04-22T19:41:00.622Z,1.83
2019-04-22T19:43:22.586Z,1.83
2019-04-22T19:45:50.631Z,1.80
2019-04-22T19:48:31.067Z,2.30
2019-04-22T19:50:58.987Z,2.30
2019-04-22T19:53:22.709Z,2.53
2019-04-22T19:55:49.733Z,2.00
2019-04-22T19:58:22.561Z,1.97
2019-04-22T20:01:09.146Z,2.90
2019-04-22T20:03:50.995Z,2.00
2019-04-22T20:06:31.558Z,2.03
2019-04-22T20:08:59.410Z,1.90
2019-04-22T20:11:30.760Z,1.80
2019-04-22T20:14:02.447Z,2.40
2019-04-22T20:16:27.272Z,2.73
2019-04-22T20:19:06.910Z,2.07
2019-04-22T20:21:28.317Z,2.10
2019-04-22T20:23:51.738Z,2.23
2019-04-22T20:26:24.780Z,2.20
2019-04-22T20:28:59.116Z,2.43
2019-04-22T20:31:33.966Z,2.70
2019-04-22T20:34:04.194Z,3.27
2019-04-22T20:36:51.879Z,2.20
2019-04-22T20:38:58.823Z,2.73
2019-04-22T20:41:26.274Z,2.53
2019-04-22T20:44:04.719Z,2.30
2019-04-22T20:46:31.253Z,2.47
2019-04-22T20:49:09.218Z,2.20
2019-04-22T20:51:43.893Z,2.17
2019-04-22T20:54:07.422Z,2.37
2019-04-22T20:56:30.086Z,2.30
2019-04-22T20:59:02.036Z,2.80
2019-04-22T21:01:36.883Z,2.70
2019-04-22T21:03:51.804Z,2.40
2019-04-22T21:06:37.034Z,2.37
2019-04-22T21:09:04.715Z,2.90
2019-04-22T21:11:34.039Z,2.30
2019-04-22T21:14:01.705Z,2.30
2019-04-22T21:16:41.384Z,2.47
2019-04-22T21:19:19.972Z,2.70
2019-04-22T21:21:37.725Z,2.57
2019-04-22T21:23:59.723Z,2.27
2019-04-22T21:26:34.896Z,2.40
2019-04-22T21:29:09.859Z,2.67
2019-04-22T21:31:41.362Z,2.60
2019-04-22T21:34:05.127Z,2.10
2019-04-22T21:36:42.241Z,1.90
2019-04-22T21:39:06.848Z,2.47
2019-04-22T21:41:36.851Z,2.90
2019-04-22T21:44:12.808Z,2.60
2019-04-22T21:46:44.322Z,2.40
2019-04-22T21:49:12.802Z,2.10
2019-04-22T21:51:43.252Z,2.10
2019-04-22T21:54:15.431Z,2.13
2019-04-22T21:57:13.390Z,1.73
2019-04-22T21:59:22.315Z,1.50
2019-04-22T22:01:55.490Z,1.97
2019-04-22T22:04:17.365Z,1.83
2019-04-22T22:06:40.424Z,2.07
2019-04-22T22:09:22.532Z,1.80
2019-04-22T22:11:51.096Z,2.10
2019-04-22T22:14:16.731Z,1.77
2019-04-22T22:16:43.559Z,1.63
2019-04-22T22:19:20.196Z,1.40
2019-04-22T22:24:23.131Z,1.50
2019-04-22T22:26:54.203Z,1.77
2019-04-22T22:29:31.821Z,1.77
2019-04-22T22:31:52.924Z,1.40
2019-04-22T22:34:24.527Z,1.47
2019-04-22T22:36:48.372Z,1.73
2019-04-22T22:39:16.432Z,1.87
2019-04-22T22:41:31.993Z,1.17
2019-04-22T22:44:10.742Z,1.40
2019-04-22T22:46:40.166Z,1.70
2019-04-22T22:49:22.984Z,1.43
2019-04-22T22:52:00.101Z,1.37
2019-04-22T22:54:23.966Z,1.80
2019-04-22T22:57:00.387Z,1.77
2019-04-22T22:59:27.655Z,1.73
2019-04-22T23:01:52.644Z,1.70
2019-04-22T23:04:29.601Z,1.67
2019-04-22T23:06:56.598Z,1.57
2019-04-22T23:09:29.073Z,1.03
2019-04-22T23:12:06.481Z,1.60
2019-04-22T23:14:28.105Z,1.20
2019-04-22T23:16:45.578Z,1.70
2019-04-22T23:19:08.910Z,1.57
2019-04-22T23:21:41.657Z,1.03
2019-04-22T23:24:27.444Z,1.70
2019-04-22T23:27:01.504Z,1.87
2019-04-22T23:29:27.000Z,1.50
2019-04-22T23:32:04.472Z,1.67
2019-04-22T23:34:38.936Z,1.67
2019-04-22T23:37:19.170Z,1.40
2019-04-22T23:40:13.973Z,1.70
2019-04-22T23:42:23.564Z,1.63
2019-04-22T23:44:56.352Z,1.33
2019-04-22T23:47:21.068Z,2.03
2019-04-22T23:49:56.637Z,1.10
2019-04-22T23:52:28.496Z,1.50
2019-04-22T23:55:10.172Z,1.67
2019-04-22T23:57:45.413Z,1.80
